This is the latest recevied weather packets stored in our database for station/object UR7D-12. If no packets are shown the sender has not sent any weather packets the latest 1 day(s).
| Time | Temp. | Humidity | Pressure | Rain* | Wind** | Luminosity | Snow |
|---|---|---|---|---|---|---|---|
| 1836274504 | 13.33° C | 91% | 1001.5 hPa | 0 mm | 3.13 m/s, 94° | - | - |
| 1836274355 | 13.33° C | 92% | 1001.5 hPa | 0 mm | 3.58 m/s, 98° | - | - |
| 1836274206 | 13.33° C | 91% | 1001.4 hPa | 0 mm | 3.13 m/s, 85° | - | - |
| 1836273904 | 13.33° C | 91% | 1001.5 hPa | 0 mm | 3.58 m/s, 90° | - | - |
| 1778035035 | 12.22° C | 65% | 986.1 hPa | 0 mm | 2.68 m/s, 112° | - | - |
| 1778034735 | 12.78° C | 65% | 986.1 hPa | 0 mm | 3.13 m/s, 127° | - | - |
| 1778034435 | 12.78° C | 64% | 986 hPa | 0 mm | 3.58 m/s, 131° | - | - |
| 1778034134 | 12.78° C | 64% | 986 hPa | 0 mm | 3.58 m/s, 101° | - | - |
| 1778033834 | 12.78° C | 63% | 985.9 hPa | 0 mm | 3.13 m/s, 109° | - | - |
| 1778033534 | 12.78° C | 63% | 985.9 hPa | 0 mm | 2.68 m/s, 120° | - | - |
| 1778033233 | 13.33° C | 62% | 986 hPa | 0 mm | 3.13 m/s, 131° | - | - |
| 1778032933 | 13.33° C | 62% | 986.1 hPa | 0 mm | 3.13 m/s, 114° | - | - |
| 1778032633 | 12.78° C | 64% | 986.2 hPa | 0 mm | 2.24 m/s, 111° | - | - |
| 1778032333 | 12.78° C | 64% | 986.2 hPa | 0 mm | 1.79 m/s, 209° | - | - |
| 1778032032 | 12.78° C | 64% | 986.2 hPa | 0 mm | 1.79 m/s, 113° | - | - |
| 1778031732 | 13.33° C | 63% | 986.3 hPa | 0 mm | 1.79 m/s, 214° | - | - |
| 1778031432 | 13.33° C | 63% | 986.1 hPa | 0 mm | 1.34 m/s, 117° | - | - |
| 1778031131 | 13.33° C | 62% | 986 hPa | 0 mm | 2.24 m/s, 129° | - | - |
| 1778030831 | 13.89° C | 61% | 985.8 hPa | 0 mm | 3.58 m/s, 136° | - | - |
| 1778030531 | 13.89° C | 61% | 985.8 hPa | 0 mm | 4.02 m/s, 110° | - | - |
| 1778030231 | 13.89° C | 61% | 985.6 hPa | 0 mm | 4.47 m/s, 103° | - | - |
| 1778029930 | 13.89° C | 61% | 985.7 hPa | 0 mm | 4.47 m/s, 115° | - | - |
| 1778029630 | 13.89° C | 60% | 985.7 hPa | 0 mm | 4.02 m/s, 103° | - | - |
| 1778029330 | 14.44° C | 60% | 985.6 hPa | 0 mm | 4.02 m/s, 108° | - | - |
| 1778029029 | 14.44° C | 59% | 985.6 hPa | 0 mm | 4.02 m/s, 108° | - | - |
* Rain latest hour (hover to see other rain measurements)
** Current wind speed in m/s (hover to see current wind gust speed)